sensor_id;sensor_type;location;lat;lon;timestamp;pressure;altitude;pressure_sealevel;temperature;humidity
17635;BME280;8936;49.010;12.120;2023-01-28T00:01:03;98391.66;;;2.13;100.00
17635;BME280;8936;49.010;12.120;2023-01-28T00:03:33;98396.47;;;2.03;100.00
17635;BME280;8936;49.010;12.120;2023-01-28T00:06:03;98390.03;;;2.18;100.00
17635;BME280;8936;49.010;12.120;2023-01-28T00:08:30;98398.38;;;2.22;100.00
17635;BME280;8936;49.010;12.120;2023-01-28T00:10:58;98390.47;;;2.22;100.00
17635;BME280;8936;49.010;12.120;2023-01-28T00:13:25;98391.44;;;2.14;100.00
17635;BME280;8936;49.010;12.120;2023-01-28T00:15:53;98390.00;;;2.05;100.00
17635;BME280;8936;49.010;12.120;2023-01-28T00:18:20;98396.03;;;1.99;100.00
17635;BME280;8936;49.010;12.120;2023-01-28T00:20:55;98393.34;;;1.86;100.00
17635;BME280;8936;49.010;12.120;2023-01-28T00:23:22;98395.53;;;1.76;100.00
17635;BME280;8936;49.010;12.120;2023-01-28T00:25:48;98394.84;;;1.61;100.00
17635;BME280;8936;49.010;12.120;2023-01-28T00:28:15;98400.88;;;1.55;100.00
17635;BME280;8936;49.010;12.120;2023-01-28T00:30:41;98402.56;;;1.62;100.00
17635;BME280;8936;49.010;12.120;2023-01-28T00:33:07;98401.44;;;1.44;100.00
17635;BME280;8936;49.010;12.120;2023-01-28T00:35:34;98398.88;;;1.57;100.00
17635;BME280;8936;49.010;12.120;2023-01-28T00:38:01;98408.53;;;1.50;100.00
17635;BME280;8936;49.010;12.120;2023-01-28T00:40:28;98410.66;;;1.68;100.00
17635;BME280;8936;49.010;12.120;2023-01-28T00:42:55;98404.69;;;1.87;100.00
17635;BME280;8936;49.010;12.120;2023-01-28T00:45:21;98401.88;;;1.88;100.00
17635;BME280;8936;49.010;12.120;2023-01-28T00:47:47;98396.28;;;1.63;100.00
17635;BME280;8936;49.010;12.120;2023-01-28T00:50:14;98414.19;;;1.47;100.00
17635;BME280;8936;49.010;12.120;2023-01-28T00:52:40;98405.38;;;1.33;100.00
17635;BME280;8936;49.010;12.120;2023-01-28T00:55:08;98411.81;;;1.24;100.00
17635;BME280;8936;49.010;12.120;2023-01-28T00:57:34;98405.75;;;1.51;100.00
17635;BME280;8936;49.010;12.120;2023-01-28T01:00:01;98406.56;;;1.58;100.00
17635;BME280;8936;49.010;12.120;2023-01-28T01:02:27;98407.06;;;1.75;100.00
17635;BME280;8936;49.010;12.120;2023-01-28T01:04:53;98411.63;;;1.94;100.00
17635;BME280;8936;49.010;12.120;2023-01-28T01:07:27;98411.25;;;1.97;100.00
17635;BME280;8936;49.010;12.120;2023-01-28T01:09:59;98396.66;;;2.01;100.00
17635;BME280;8936;49.010;12.120;2023-01-28T01:12:27;98419.25;;;1.76;100.00
17635;BME280;8936;49.010;12.120;2023-01-28T01:14:53;98413.34;;;1.74;100.00
17635;BME280;8936;49.010;12.120;2023-01-28T01:17:19;98411.00;;;1.58;100.00
17635;BME280;8936;49.010;12.120;2023-01-28T01:19:46;98403.75;;;1.60;100.00
17635;BME280;8936;49.010;12.120;2023-01-28T01:22:12;98412.19;;;1.49;100.00
17635;BME280;8936;49.010;12.120;2023-01-28T01:24:38;98417.34;;;1.63;100.00
17635;BME280;8936;49.010;12.120;2023-01-28T01:27:05;98406.03;;;1.35;100.00
17635;BME280;8936;49.010;12.120;2023-01-28T01:29:33;98414.38;;;1.73;100.00
17635;BME280;8936;49.010;12.120;2023-01-28T01:31:59;98412.41;;;1.88;100.00
17635;BME280;8936;49.010;12.120;2023-01-28T01:34:25;98403.78;;;2.01;100.00
17635;BME280;8936;49.010;12.120;2023-01-28T01:36:52;98421.28;;;1.81;100.00
17635;BME280;8936;49.010;12.120;2023-01-28T01:39:18;98417.63;;;1.75;100.00
17635;BME280;8936;49.010;12.120;2023-01-28T01:41:44;98413.50;;;1.66;100.00
17635;BME280;8936;49.010;12.120;2023-01-28T01:46:57;98428.97;;;1.76;100.00
17635;BME280;8936;49.010;12.120;2023-01-28T01:49:25;98425.34;;;1.83;100.00
17635;BME280;8936;49.010;12.120;2023-01-28T01:51:52;98421.25;;;1.74;100.00
17635;BME280;8936;49.010;12.120;2023-01-28T01:54:19;98427.16;;;1.76;100.00
17635;BME280;8936;49.010;12.120;2023-01-28T01:56:48;98427.25;;;2.02;100.00
17635;BME280;8936;49.010;12.120;2023-01-28T01:59:17;98424.75;;;2.29;100.00
17635;BME280;8936;49.010;12.120;2023-01-28T02:01:47;98425.66;;;2.08;100.00
17635;BME280;8936;49.010;12.120;2023-01-28T02:04:16;98427.00;;;1.91;100.00
17635;BME280;8936;49.010;12.120;2023-01-28T02:06:45;98423.84;;;2.08;100.00
17635;BME280;8936;49.010;12.120;2023-01-28T02:09:25;98423.41;;;2.05;100.00
17635;BME280;8936;49.010;12.120;2023-01-28T02:11:52;98430.97;;;2.14;100.00
17635;BME280;8936;49.010;12.120;2023-01-28T02:14:20;98430.34;;;2.12;100.00
17635;BME280;8936;49.010;12.120;2023-01-28T02:16:48;98429.69;;;1.97;100.00
17635;BME280;8936;49.010;12.120;2023-01-28T02:19:16;98437.13;;;1.87;100.00
17635;BME280;8936;49.010;12.120;2023-01-28T02:21:50;98434.09;;;1.90;100.00
17635;BME280;8936;49.010;12.120;2023-01-28T02:24:28;98432.81;;;1.73;100.00
17635;BME280;8936;49.010;12.120;2023-01-28T02:27:06;98431.13;;;1.66;100.00
17635;BME280;8936;49.010;12.120;2023-01-28T02:29:40;98437.66;;;1.42;100.00
17635;BME280;8936;49.010;12.120;2023-01-28T02:32:10;98443.81;;;1.55;100.00
17635;BME280;8936;49.010;12.120;2023-01-28T02:34:41;98432.56;;;1.68;100.00
17635;BME280;8936;49.010;12.120;2023-01-28T02:37:09;98450.03;;;1.76;100.00
17635;BME280;8936;49.010;12.120;2023-01-28T02:39:39;98445.44;;;2.32;100.00
17635;BME280;8936;49.010;12.120;2023-01-28T02:42:08;98443.28;;;2.07;100.00
17635;BME280;8936;49.010;12.120;2023-01-28T02:44:35;98435.69;;;2.32;100.00
17635;BME280;8936;49.010;12.120;2023-01-28T02:47:04;98441.53;;;2.21;100.00
17635;BME280;8936;49.010;12.120;2023-01-28T02:49:49;98442.84;;;1.97;100.00
17635;BME280;8936;49.010;12.120;2023-01-28T02:52:22;98445.38;;;1.78;100.00
17635;BME280;8936;49.010;12.120;2023-01-28T02:55:09;98454.28;;;2.17;100.00
17635;BME280;8936;49.010;12.120;2023-01-28T02:57:39;98446.56;;;2.09;100.00
17635;BME280;8936;49.010;12.120;2023-01-28T03:00:09;98456.19;;;1.61;100.00
17635;BME280;8936;49.010;12.120;2023-01-28T03:02:40;98465.81;;;1.76;100.00
17635;BME280;8936;49.010;12.120;2023-01-28T03:05:08;98449.69;;;1.85;100.00
17635;BME280;8936;49.010;12.120;2023-01-28T03:07:39;98449.59;;;1.72;100.00
17635;BME280;8936;49.010;12.120;2023-01-28T03:10:06;98446.78;;;2.14;100.00
17635;BME280;8936;49.010;12.120;2023-01-28T03:12:34;98450.34;;;2.41;100.00
17635;BME280;8936;49.010;12.120;2023-01-28T03:15:19;98448.72;;;2.47;100.00
17635;BME280;8936;49.010;12.120;2023-01-28T03:18:06;98453.84;;;2.61;100.00
17635;BME280;8936;49.010;12.120;2023-01-28T03:20:53;98452.00;;;2.62;100.00
17635;BME280;8936;49.010;12.120;2023-01-28T03:23:40;98454.84;;;2.67;100.00
17635;BME280;8936;49.010;12.120;2023-01-28T03:26:29;98457.91;;;2.70;100.00
17635;BME280;8936;49.010;12.120;2023-01-28T03:29:14;98454.06;;;2.73;100.00
17635;BME280;8936;49.010;12.120;2023-01-28T03:31:59;98456.03;;;2.51;100.00
17635;BME280;8936;49.010;12.120;2023-01-28T03:34:45;98456.75;;;2.32;100.00
17635;BME280;8936;49.010;12.120;2023-01-28T03:37:29;98468.03;;;2.06;100.00
17635;BME280;8936;49.010;12.120;2023-01-28T03:40:00;98461.91;;;1.99;100.00
17635;BME280;8936;49.010;12.120;2023-01-28T03:42:26;98464.66;;;2.32;100.00
17635;BME280;8936;49.010;12.120;2023-01-28T03:44:53;98467.00;;;2.55;100.00
17635;BME280;8936;49.010;12.120;2023-01-28T03:47:19;98469.44;;;2.56;100.00
17635;BME280;8936;49.010;12.120;2023-01-28T03:49:48;98472.91;;;2.63;100.00
17635;BME280;8936;49.010;12.120;2023-01-28T03:52:15;98468.78;;;2.48;100.00
17635;BME280;8936;49.010;12.120;2023-01-28T03:54:42;98470.72;;;2.20;100.00
17635;BME280;8936;49.010;12.120;2023-01-28T03:57:11;98484.25;;;2.10;100.00
17635;BME280;8936;49.010;12.120;2023-01-28T03:59:38;98480.25;;;2.21;100.00
17635;BME280;8936;49.010;12.120;2023-01-28T04:02:05;98483.50;;;2.23;100.00
17635;BME280;8936;49.010;12.120;2023-01-28T04:04:32;98478.78;;;2.11;100.00
17635;BME280;8936;49.010;12.120;2023-01-28T04:06:59;98475.31;;;2.11;100.00
17635;BME280;8936;49.010;12.120;2023-01-28T04:09:26;98483.84;;;2.06;100.00
17635;BME280;8936;49.010;12.120;2023-01-28T04:11:52;98467.00;;;2.07;100.00
17635;BME280;8936;49.010;12.120;2023-01-28T04:14:18;98472.47;;;2.06;100.00
17635;BME280;8936;49.010;12.120;2023-01-28T04:16:45;98470.34;;;1.88;100.00
17635;BME280;8936;49.010;12.120;2023-01-28T04:19:11;98481.75;;;2.02;100.00
17635;BME280;8936;49.010;12.120;2023-01-28T04:21:38;98482.13;;;1.92;100.00
17635;BME280;8936;49.010;12.120;2023-01-28T04:24:06;98479.00;;;2.10;100.00
17635;BME280;8936;49.010;12.120;2023-01-28T04:26:33;98484.59;;;2.00;100.00
17635;BME280;8936;49.010;12.120;2023-01-28T04:28:59;98478.94;;;2.03;100.00
17635;BME280;8936;49.010;12.120;2023-01-28T04:31:25;98486.06;;;1.75;100.00
17635;BME280;8936;49.010;12.120;2023-01-28T04:33:52;98490.47;;;1.68;100.00
17635;BME280;8936;49.010;12.120;2023-01-28T04:36:18;98498.91;;;1.57;100.00
17635;BME280;8936;49.010;12.120;2023-01-28T04:38:44;98492.81;;;1.84;100.00
17635;BME280;8936;49.010;12.120;2023-01-28T04:41:12;98496.75;;;2.01;100.00
17635;BME280;8936;49.010;12.120;2023-01-28T04:43:38;98495.22;;;2.20;100.00
17635;BME280;8936;49.010;12.120;2023-01-28T04:46:05;98494.94;;;2.43;100.00
17635;BME280;8936;49.010;12.120;2023-01-28T04:48:31;98506.13;;;2.51;100.00
17635;BME280;8936;49.010;12.120;2023-01-28T04:50:59;98497.22;;;2.59;100.00
17635;BME280;8936;49.010;12.120;2023-01-28T04:53:25;98504.25;;;2.39;100.00
17635;BME280;8936;49.010;12.120;2023-01-28T04:55:52;98499.38;;;2.42;100.00
17635;BME280;8936;49.010;12.120;2023-01-28T04:58:19;98509.66;;;2.24;100.00
17635;BME280;8936;49.010;12.120;2023-01-28T05:00:46;98503.56;;;2.24;100.00
17635;BME280;8936;49.010;12.120;2023-01-28T05:03:12;98499.00;;;2.45;100.00
17635;BME280;8936;49.010;12.120;2023-01-28T05:05:38;98497.78;;;2.48;100.00
17635;BME280;8936;49.010;12.120;2023-01-28T05:08:05;98487.59;;;2.32;100.00
17635;BME280;8936;49.010;12.120;2023-01-28T05:10:31;98495.16;;;2.00;100.00
17635;BME280;8936;49.010;12.120;2023-01-28T05:12:57;98487.00;;;1.95;100.00
17635;BME280;8936;49.010;12.120;2023-01-28T05:15:25;98498.50;;;2.22;100.00
17635;BME280;8936;49.010;12.120;2023-01-28T05:17:53;98500.19;;;2.36;100.00
17635;BME280;8936;49.010;12.120;2023-01-28T05:20:19;98498.53;;;2.29;100.00
17635;BME280;8936;49.010;12.120;2023-01-28T05:22:46;98501.78;;;2.31;100.00
17635;BME280;8936;49.010;12.120;2023-01-28T05:25:12;98503.03;;;2.00;100.00
17635;BME280;8936;49.010;12.120;2023-01-28T05:27:38;98498.97;;;1.98;100.00
17635;BME280;8936;49.010;12.120;2023-01-28T05:30:05;98500.31;;;1.87;100.00
17635;BME280;8936;49.010;12.120;2023-01-28T05:32:33;98506.47;;;1.94;100.00
17635;BME280;8936;49.010;12.120;2023-01-28T05:35:00;98498.38;;;2.02;100.00
17635;BME280;8936;49.010;12.120;2023-01-28T05:37:26;98501.97;;;1.88;100.00
17635;BME280;8936;49.010;12.120;2023-01-28T05:39:53;98494.97;;;1.74;100.00
17635;BME280;8936;49.010;12.120;2023-01-28T05:42:19;98492.50;;;1.66;100.00
17635;BME280;8936;49.010;12.120;2023-01-28T05:44:46;98501.72;;;1.55;100.00
17635;BME280;8936;49.010;12.120;2023-01-28T05:47:13;98501.25;;;1.45;100.00
17635;BME280;8936;49.010;12.120;2023-01-28T05:49:40;98502.19;;;1.38;100.00
17635;BME280;8936;49.010;12.120;2023-01-28T05:52:07;98504.53;;;1.26;100.00
17635;BME280;8936;49.010;12.120;2023-01-28T05:54:33;98502.28;;;1.23;100.00
17635;BME280;8936;49.010;12.120;2023-01-28T05:56:59;98503.19;;;1.37;100.00
17635;BME280;8936;49.010;12.120;2023-01-28T05:59:26;98510.41;;;1.28;100.00
17635;BME280;8936;49.010;12.120;2023-01-28T06:01:52;98510.09;;;1.17;100.00
17635;BME280;8936;49.010;12.120;2023-01-28T06:04:18;98513.63;;;1.24;100.00
17635;BME280;8936;49.010;12.120;2023-01-28T06:06:46;98514.72;;;1.36;100.00
17635;BME280;8936;49.010;12.120;2023-01-28T06:09:12;98527.06;;;1.35;100.00
17635;BME280;8936;49.010;12.120;2023-01-28T06:11:39;98525.25;;;1.36;100.00
17635;BME280;8936;49.010;12.120;2023-01-28T06:14:05;98526.50;;;1.19;100.00
17635;BME280;8936;49.010;12.120;2023-01-28T06:16:31;98527.56;;;1.24;100.00
17635;BME280;8936;49.010;12.120;2023-01-28T06:18:58;98529.41;;;1.24;100.00
17635;BME280;8936;49.010;12.120;2023-01-28T06:21:24;98533.34;;;1.13;100.00
17635;BME280;8936;49.010;12.120;2023-01-28T06:23:52;98545.16;;;1.02;100.00
17635;BME280;8936;49.010;12.120;2023-01-28T06:26:18;98555.34;;;1.27;100.00
17635;BME280;8936;49.010;12.120;2023-01-28T06:28:44;98552.78;;;1.61;100.00
17635;BME280;8936;49.010;12.120;2023-01-28T06:31:11;98558.19;;;1.53;100.00
17635;BME280;8936;49.010;12.120;2023-01-28T06:33:37;98553.28;;;1.71;100.00
17635;BME280;8936;49.010;12.120;2023-01-28T06:36:04;98556.97;;;1.77;100.00
17635;BME280;8936;49.010;12.120;2023-01-28T06:38:30;98563.97;;;1.91;100.00
17635;BME280;8936;49.010;12.120;2023-01-28T06:40:58;98557.78;;;2.05;100.00
17635;BME280;8936;49.010;12.120;2023-01-28T06:43:25;98568.66;;;1.95;100.00
17635;BME280;8936;49.010;12.120;2023-01-28T06:45:54;98571.25;;;2.16;100.00
17635;BME280;8936;49.010;12.120;2023-01-28T06:48:21;98565.75;;;2.18;100.00
17635;BME280;8936;49.010;12.120;2023-01-28T06:50:47;98566.28;;;2.00;100.00
17635;BME280;8936;49.010;12.120;2023-01-28T06:53:13;98571.28;;;1.95;100.00
17635;BME280;8936;49.010;12.120;2023-01-28T06:55:40;98578.19;;;1.96;100.00
17635;BME280;8936;49.010;12.120;2023-01-28T06:58:08;98572.63;;;2.12;100.00
17635;BME280;8936;49.010;12.120;2023-01-28T07:00:34;98571.72;;;1.99;100.00
17635;BME280;8936;49.010;12.120;2023-01-28T07:03:01;98573.06;;;2.16;100.00
17635;BME280;8936;49.010;12.120;2023-01-28T07:05:27;98583.94;;;2.06;100.00
17635;BME280;8936;49.010;12.120;2023-01-28T07:07:54;98588.06;;;2.15;100.00
17635;BME280;8936;49.010;12.120;2023-01-28T07:10:20;98592.66;;;2.07;100.00
17635;BME280;8936;49.010;12.120;2023-01-28T07:12:46;98599.47;;;2.29;100.00
17635;BME280;8936;49.010;12.120;2023-01-28T07:15:14;98601.03;;;2.17;100.00
17635;BME280;8936;49.010;12.120;2023-01-28T07:17:41;98596.84;;;2.01;100.00
17635;BME280;8936;49.010;12.120;2023-01-28T07:20:08;98603.19;;;1.79;100.00
17635;BME280;8936;49.010;12.120;2023-01-28T07:22:36;98612.47;;;2.03;100.00
17635;BME280;8936;49.010;12.120;2023-01-28T07:25:03;98614.00;;;1.91;100.00
17635;BME280;8936;49.010;12.120;2023-01-28T07:27:30;98609.50;;;2.12;100.00
17635;BME280;8936;49.010;12.120;2023-01-28T07:29:56;98609.63;;;2.32;100.00
17635;BME280;8936;49.010;12.120;2023-01-28T07:32:24;98606.25;;;2.45;100.00
17635;BME280;8936;49.010;12.120;2023-01-28T07:34:51;98607.09;;;2.45;100.00
17635;BME280;8936;49.010;12.120;2023-01-28T07:37:18;98604.94;;;2.62;100.00
17635;BME280;8936;49.010;12.120;2023-01-28T07:39:44;98605.78;;;2.62;100.00
17635;BME280;8936;49.010;12.120;2023-01-28T07:42:10;98607.44;;;2.77;100.00
17635;BME280;8936;49.010;12.120;2023-01-28T07:44:37;98608.47;;;2.82;100.00
17635;BME280;8936;49.010;12.120;2023-01-28T07:47:04;98609.16;;;2.91;100.00
17635;BME280;8936;49.010;12.120;2023-01-28T07:49:33;98614.00;;;2.87;100.00
17635;BME280;8936;49.010;12.120;2023-01-28T07:51:59;98614.16;;;2.79;100.00
17635;BME280;8936;49.010;12.120;2023-01-28T07:54:25;98619.22;;;2.74;100.00
17635;BME280;8936;49.010;12.120;2023-01-28T07:56:52;98622.88;;;2.80;100.00
17635;BME280;8936;49.010;12.120;2023-01-28T07:59:18;98617.25;;;2.89;100.00
17635;BME280;8936;49.010;12.120;2023-01-28T08:01:44;98626.50;;;2.72;100.00
17635;BME280;8936;49.010;12.120;2023-01-28T08:04:11;98634.81;;;2.35;100.00
17635;BME280;8936;49.010;12.120;2023-01-28T08:06:38;98630.53;;;2.34;100.00
17635;BME280;8936;49.010;12.120;2023-01-28T08:09:05;98634.09;;;2.54;100.00
17635;BME280;8936;49.010;12.120;2023-01-28T08:11:32;98639.34;;;2.47;100.00
17635;BME280;8936;49.010;12.120;2023-01-28T08:13:58;98639.50;;;2.39;100.00
17635;BME280;8936;49.010;12.120;2023-01-28T08:16:25;98649.25;;;2.17;100.00
17635;BME280;8936;49.010;12.120;2023-01-28T08:18:52;98639.97;;;2.22;100.00
17635;BME280;8936;49.010;12.120;2023-01-28T08:21:19;98655.50;;;2.38;100.00
17635;BME280;8936;49.010;12.120;2023-01-28T08:23:46;98645.00;;;2.44;100.00
17635;BME280;8936;49.010;12.120;2023-01-28T08:26:13;98643.22;;;2.51;100.00
17635;BME280;8936;49.010;12.120;2023-01-28T08:28:39;98645.53;;;2.67;100.00
17635;BME280;8936;49.010;12.120;2023-01-28T08:31:06;98648.59;;;2.71;100.00
17635;BME280;8936;49.010;12.120;2023-01-28T08:33:32;98649.91;;;2.54;100.00
17635;BME280;8936;49.010;12.120;2023-01-28T08:36:01;98645.28;;;2.56;100.00
17635;BME280;8936;49.010;12.120;2023-01-28T08:38:27;98644.16;;;2.71;100.00
17635;BME280;8936;49.010;12.120;2023-01-28T08:40:56;98645.75;;;2.72;100.00
17635;BME280;8936;49.010;12.120;2023-01-28T08:43:24;98651.50;;;2.48;100.00
17635;BME280;8936;49.010;12.120;2023-01-28T08:45:50;98649.16;;;2.60;100.00
17635;BME280;8936;49.010;12.120;2023-01-28T08:48:19;98649.53;;;2.57;100.00
17635;BME280;8936;49.010;12.120;2023-01-28T08:50:46;98644.50;;;2.62;100.00
17635;BME280;8936;49.010;12.120;2023-01-28T08:53:13;98648.00;;;2.76;100.00
17635;BME280;8936;49.010;12.120;2023-01-28T08:55:40;98637.53;;;2.89;100.00
17635;BME280;8936;49.010;12.120;2023-01-28T08:58:10;98635.91;;;2.88;100.00
17635;BME280;8936;49.010;12.120;2023-01-28T09:00:36;98650.50;;;2.84;100.00
17635;BME280;8936;49.010;12.120;2023-01-28T09:03:04;98642.59;;;2.49;100.00
17635;BME280;8936;49.010;12.120;2023-01-28T09:05:30;98651.06;;;2.38;100.00
17635;BME280;8936;49.010;12.120;2023-01-28T09:07:59;98648.31;;;2.53;100.00
17635;BME280;8936;49.010;12.120;2023-01-28T09:10:26;98644.31;;;2.36;100.00
17635;BME280;8936;49.010;12.120;2023-01-28T09:12:52;98645.34;;;2.35;100.00
17635;BME280;8936;49.010;12.120;2023-01-28T09:15:20;98656.22;;;2.53;100.00
17635;BME280;8936;49.010;12.120;2023-01-28T09:17:46;98645.13;;;2.64;100.00
17635;BME280;8936;49.010;12.120;2023-01-28T09:20:12;98653.69;;;2.72;100.00
17635;BME280;8936;49.010;12.120;2023-01-28T09:22:39;98658.00;;;2.46;100.00
17635;BME280;8936;49.010;12.120;2023-01-28T09:25:05;98665.50;;;2.49;100.00
17635;BME280;8936;49.010;12.120;2023-01-28T09:27:32;98655.19;;;2.54;100.00
17635;BME280;8936;49.010;12.120;2023-01-28T09:29:58;98664.88;;;2.75;100.00
17635;BME280;8936;49.010;12.120;2023-01-28T09:32:26;98663.66;;;2.43;100.00
17635;BME280;8936;49.010;12.120;2023-01-28T09:34:52;98670.13;;;2.40;100.00
17635;BME280;8936;49.010;12.120;2023-01-28T09:37:18;98672.94;;;2.39;100.00
17635;BME280;8936;49.010;12.120;2023-01-28T09:39:45;98672.25;;;2.58;100.00
17635;BME280;8936;49.010;12.120;2023-01-28T09:42:15;98674.66;;;2.53;100.00
17635;BME280;8936;49.010;12.120;2023-01-28T09:44:51;98677.50;;;2.24;100.00
17635;BME280;8936;49.010;12.120;2023-01-28T09:47:21;98677.53;;;2.30;100.00
17635;BME280;8936;49.010;12.120;2023-01-28T09:49:50;98677.41;;;2.38;100.00
17635;BME280;8936;49.010;12.120;2023-01-28T09:52:18;98667.97;;;2.23;100.00
17635;BME280;8936;49.010;12.120;2023-01-28T09:54:47;98674.75;;;2.10;100.00
17635;BME280;8936;49.010;12.120;2023-01-28T09:57:16;98675.88;;;2.01;100.00
17635;BME280;8936;49.010;12.120;2023-01-28T09:59:45;98678.78;;;2.06;100.00
17635;BME280;8936;49.010;12.120;2023-01-28T10:02:24;98671.84;;;2.27;100.00
17635;BME280;8936;49.010;12.120;2023-01-28T10:04:56;98673.38;;;2.14;100.00
17635;BME280;8936;49.010;12.120;2023-01-28T10:07:26;98667.59;;;2.26;100.00
17635;BME280;8936;49.010;12.120;2023-01-28T10:09:57;98675.13;;;2.29;100.00
17635;BME280;8936;49.010;12.120;2023-01-28T10:12:31;98665.19;;;2.31;100.00
17635;BME280;8936;49.010;12.120;2023-01-28T10:15:04;98670.47;;;2.31;100.00
17635;BME280;8936;49.010;12.120;2023-01-28T10:17:33;98674.25;;;2.49;100.00
17635;BME280;8936;49.010;12.120;2023-01-28T10:20:04;98685.31;;;2.38;100.00
17635;BME280;8936;49.010;12.120;2023-01-28T10:22:34;98673.97;;;2.38;100.00
17635;BME280;8936;49.010;12.120;2023-01-28T10:25:03;98691.94;;;2.55;100.00
17635;BME280;8936;49.010;12.120;2023-01-28T10:27:31;98676.22;;;2.41;100.00
17635;BME280;8936;49.010;12.120;2023-01-28T10:29:59;98678.97;;;2.33;100.00
17635;BME280;8936;49.010;12.120;2023-01-28T10:32:36;98677.75;;;2.29;100.00
17635;BME280;8936;49.010;12.120;2023-01-28T10:35:05;98683.75;;;2.44;100.00
17635;BME280;8936;49.010;12.120;2023-01-28T10:37:33;98681.75;;;2.25;100.00
17635;BME280;8936;49.010;12.120;2023-01-28T10:40:00;98680.78;;;2.26;100.00
17635;BME280;8936;49.010;12.120;2023-01-28T10:42:28;98683.34;;;2.19;100.00
17635;BME280;8936;49.010;12.120;2023-01-28T10:44:56;98685.19;;;1.97;100.00
17635;BME280;8936;49.010;12.120;2023-01-28T10:47:26;98680.78;;;2.04;100.00
17635;BME280;8936;49.010;12.120;2023-01-28T10:49:53;98679.22;;;2.10;100.00
17635;BME280;8936;49.010;12.120;2023-01-28T10:52:22;98678.50;;;2.23;100.00
17635;BME280;8936;49.010;12.120;2023-01-28T10:54:57;98665.19;;;2.31;100.00
17635;BME280;8936;49.010;12.120;2023-01-28T10:57:24;98675.44;;;2.47;100.00
17635;BME280;8936;49.010;12.120;2023-01-28T10:59:50;98679.94;;;2.53;100.00
17635;BME280;8936;49.010;12.120;2023-01-28T11:02:21;98679.03;;;2.39;100.00
17635;BME280;8936;49.010;12.120;2023-01-28T11:04:58;98669.84;;;2.29;100.00
17635;BME280;8936;49.010;12.120;2023-01-28T11:07:27;98673.81;;;2.46;100.00
17635;BME280;8936;49.010;12.120;2023-01-28T11:09:53;98672.56;;;2.42;100.00
17635;BME280;8936;49.010;12.120;2023-01-28T11:12:20;98666.94;;;2.51;100.00
17635;BME280;8936;49.010;12.120;2023-01-28T11:14:52;98661.16;;;2.35;100.00
17635;BME280;8936;49.010;12.120;2023-01-28T11:17:19;98660.63;;;2.46;100.00
17635;BME280;8936;49.010;12.120;2023-01-28T11:19:48;98667.38;;;2.55;100.00
17635;BME280;8936;49.010;12.120;2023-01-28T11:24:46;98666.31;;;2.49;100.00
17635;BME280;8936;49.010;12.120;2023-01-28T11:27:14;98667.31;;;2.48;100.00
17635;BME280;8936;49.010;12.120;2023-01-28T11:29:42;98673.41;;;2.49;100.00
17635;BME280;8936;49.010;12.120;2023-01-28T11:32:15;98665.50;;;2.49;100.00
17635;BME280;8936;49.010;12.120;2023-01-28T11:34:47;98665.66;;;2.68;100.00
17635;BME280;8936;49.010;12.120;2023-01-28T11:37:14;98670.72;;;2.70;100.00
17635;BME280;8936;49.010;12.120;2023-01-28T11:39:41;98669.72;;;2.71;100.00
17635;BME280;8936;49.010;12.120;2023-01-28T11:42:12;98666.75;;;2.87;100.00
17635;BME280;8936;49.010;12.120;2023-01-28T11:44:40;98666.94;;;2.86;100.00
17635;BME280;8936;49.010;12.120;2023-01-28T11:49:59;98665.81;;;3.01;100.00
17635;BME280;8936;49.010;12.120;2023-01-28T11:52:30;98661.59;;;3.13;100.00
17635;BME280;8936;49.010;12.120;2023-01-28T11:55:07;98661.59;;;3.13;100.00
17635;BME280;8936;49.010;12.120;2023-01-28T11:57:44;98653.22;;;2.97;100.00
17635;BME280;8936;49.010;12.120;2023-01-28T12:00:26;98646.47;;;2.94;100.00
17635;BME280;8936;49.010;12.120;2023-01-28T12:02:58;98659.16;;;2.71;100.00
17635;BME280;8936;49.010;12.120;2023-01-28T12:05:34;98654.78;;;2.50;100.00
17635;BME280;8936;49.010;12.120;2023-01-28T12:08:06;98652.38;;;2.55;100.00
17635;BME280;8936;49.010;12.120;2023-01-28T12:10:36;98651.13;;;2.86;100.00
17635;BME280;8936;49.010;12.120;2023-01-28T12:13:08;98655.47;;;3.00;100.00
17635;BME280;8936;49.010;12.120;2023-01-28T12:15:53;98649.13;;;2.94;100.00
17635;BME280;8936;49.010;12.120;2023-01-28T12:18:36;98650.06;;;2.80;100.00
17635;BME280;8936;49.010;12.120;2023-01-28T12:21:04;98643.97;;;2.80;100.00
17635;BME280;8936;49.010;12.120;2023-01-28T12:26:18;98638.53;;;2.81;100.00
17635;BME280;8936;49.010;12.120;2023-01-28T12:28:51;98639.53;;;2.80;100.00
17635;BME280;8936;49.010;12.120;2023-01-28T12:31:28;98638.91;;;2.78;100.00
17635;BME280;8936;49.010;12.120;2023-01-28T12:34:05;98643.13;;;2.72;100.00
17635;BME280;8936;49.010;12.120;2023-01-28T12:36:40;98644.81;;;2.80;100.00
17635;BME280;8936;49.010;12.120;2023-01-28T12:39:10;98644.19;;;2.78;100.00
17635;BME280;8936;49.010;12.120;2023-01-28T12:41:43;98636.56;;;2.96;100.00
17635;BME280;8936;49.010;12.120;2023-01-28T12:44:14;98642.06;;;3.01;100.00
17635;BME280;8936;49.010;12.120;2023-01-28T12:46:45;98641.91;;;3.09;100.00
17635;BME280;8936;49.010;12.120;2023-01-28T12:49:16;98641.59;;;2.91;100.00
17635;BME280;8936;49.010;12.120;2023-01-28T12:51:46;98641.94;;;2.75;100.00
17635;BME280;8936;49.010;12.120;2023-01-28T12:54:15;98650.63;;;2.69;100.00
17635;BME280;8936;49.010;12.120;2023-01-28T12:56:44;98641.31;;;2.73;100.00
17635;BME280;8936;49.010;12.120;2023-01-28T12:59:15;98641.56;;;2.78;100.00
17635;BME280;8936;49.010;12.120;2023-01-28T13:01:45;98639.38;;;2.95;100.00
17635;BME280;8936;49.010;12.120;2023-01-28T13:04:16;98651.28;;;2.78;100.00
17635;BME280;8936;49.010;12.120;2023-01-28T13:06:46;98651.16;;;2.58;100.00
17635;BME280;8936;49.010;12.120;2023-01-28T13:09:14;98655.56;;;2.44;100.00
17635;BME280;8936;49.010;12.120;2023-01-28T13:11:42;98645.75;;;2.32;100.00
17635;BME280;8936;49.010;12.120;2023-01-28T13:14:08;98658.22;;;2.51;100.00
17635;BME280;8936;49.010;12.120;2023-01-28T13:16:39;98659.06;;;2.58;100.00
17635;BME280;8936;49.010;12.120;2023-01-28T13:19:06;98664.66;;;2.42;100.00